sensor_id;sensor_type;location;lat;lon;timestamp;temperature;humidity
69595;DHT22;56800;52.142;5.364;2023-08-20T00:01:32;19.40;71.90
69595;DHT22;56800;52.142;5.364;2023-08-20T00:03:59;19.40;71.90
69595;DHT22;56800;52.142;5.364;2023-08-20T00:06:27;19.40;72.00
69595;DHT22;56800;52.142;5.364;2023-08-20T00:08:53;19.40;72.10
69595;DHT22;56800;52.142;5.364;2023-08-20T00:11:20;19.30;72.10
69595;DHT22;56800;52.142;5.364;2023-08-20T00:13:47;19.30;72.10
69595;DHT22;56800;52.142;5.364;2023-08-20T00:16:14;19.30;72.20
69595;DHT22;56800;52.142;5.364;2023-08-20T00:18:41;19.20;72.20
69595;DHT22;56800;52.142;5.364;2023-08-20T00:21:08;19.20;72.30
69595;DHT22;56800;52.142;5.364;2023-08-20T00:23:36;19.20;72.30
69595;DHT22;56800;52.142;5.364;2023-08-20T00:26:03;19.20;72.40
69595;DHT22;56800;52.142;5.364;2023-08-20T00:28:31;19.20;72.50
69595;DHT22;56800;52.142;5.364;2023-08-20T00:31:00;19.20;73.20
69595;DHT22;56800;52.142;5.364;2023-08-20T00:33:28;19.20;72.40
69595;DHT22;56800;52.142;5.364;2023-08-20T00:35:55;19.10;73.20
69595;DHT22;56800;52.142;5.364;2023-08-20T00:38:21;19.10;72.50
69595;DHT22;56800;52.142;5.364;2023-08-20T00:40:48;19.10;72.60
69595;DHT22;56800;52.142;5.364;2023-08-20T00:43:15;19.10;72.60
69595;DHT22;56800;52.142;5.364;2023-08-20T00:45:42;19.10;72.70
69595;DHT22;56800;52.142;5.364;2023-08-20T00:48:10;19.10;72.80
69595;DHT22;56800;52.142;5.364;2023-08-20T00:50:38;19.10;72.80
69595;DHT22;56800;52.142;5.364;2023-08-20T00:53:07;19.10;72.80
69595;DHT22;56800;52.142;5.364;2023-08-20T00:55:35;19.10;72.80
69595;DHT22;56800;52.142;5.364;2023-08-20T00:58:02;19.10;72.80
69595;DHT22;56800;52.142;5.364;2023-08-20T01:00:29;19.10;72.80
69595;DHT22;56800;52.142;5.364;2023-08-20T01:02:56;19.10;72.80
69595;DHT22;56800;52.142;5.364;2023-08-20T01:05:23;19.10;72.80
69595;DHT22;56800;52.142;5.364;2023-08-20T01:08:03;19.10;72.80
69595;DHT22;56800;52.142;5.364;2023-08-20T01:10:36;19.10;72.90
69595;DHT22;56800;52.142;5.364;2023-08-20T01:13:05;19.10;72.90
69595;DHT22;56800;52.142;5.364;2023-08-20T01:15:32;19.10;72.80
69595;DHT22;56800;52.142;5.364;2023-08-20T01:17:59;19.10;72.80
69595;DHT22;56800;52.142;5.364;2023-08-20T01:20:33;19.00;72.70
69595;DHT22;56800;52.142;5.364;2023-08-20T01:29:07;19.00;72.80
69595;DHT22;56800;52.142;5.364;2023-08-20T01:31:35;19.00;72.70
69595;DHT22;56800;52.142;5.364;2023-08-20T01:34:02;19.10;72.80
69595;DHT22;56800;52.142;5.364;2023-08-20T01:36:29;19.10;72.70
69595;DHT22;56800;52.142;5.364;2023-08-20T01:38:56;19.10;72.60
69595;DHT22;56800;52.142;5.364;2023-08-20T01:41:23;19.10;72.60
69595;DHT22;56800;52.142;5.364;2023-08-20T01:43:49;19.10;72.50
69595;DHT22;56800;52.142;5.364;2023-08-20T01:46:16;19.10;72.40
69595;DHT22;56800;52.142;5.364;2023-08-20T01:48:43;19.10;72.50
69595;DHT22;56800;52.142;5.364;2023-08-20T01:51:09;19.10;72.40
69595;DHT22;56800;52.142;5.364;2023-08-20T01:53:36;19.20;72.40
69595;DHT22;56800;52.142;5.364;2023-08-20T01:56:03;19.20;72.40
69595;DHT22;56800;52.142;5.364;2023-08-20T01:58:30;19.10;72.30
69595;DHT22;56800;52.142;5.364;2023-08-20T02:00:58;19.20;72.40
69595;DHT22;56800;52.142;5.364;2023-08-20T02:03:25;19.10;72.40
69595;DHT22;56800;52.142;5.364;2023-08-20T02:05:52;19.10;73.10
69595;DHT22;56800;52.142;5.364;2023-08-20T02:08:18;19.20;72.40
69595;DHT22;56800;52.142;5.364;2023-08-20T02:10:45;19.20;72.40
69595;DHT22;56800;52.142;5.364;2023-08-20T02:13:12;19.20;72.30
69595;DHT22;56800;52.142;5.364;2023-08-20T02:15:39;19.20;72.30
69595;DHT22;56800;52.142;5.364;2023-08-20T02:18:06;19.20;72.30
69595;DHT22;56800;52.142;5.364;2023-08-20T02:20:32;19.20;72.20
69595;DHT22;56800;52.142;5.364;2023-08-20T02:22:59;19.20;72.40
69595;DHT22;56800;52.142;5.364;2023-08-20T02:25:26;19.10;72.50
69595;DHT22;56800;52.142;5.364;2023-08-20T02:27:52;19.10;72.60
69595;DHT22;56800;52.142;5.364;2023-08-20T02:30:20;19.00;72.60
69595;DHT22;56800;52.142;5.364;2023-08-20T02:32:46;19.00;72.70
69595;DHT22;56800;52.142;5.364;2023-08-20T02:35:13;18.90;72.70
69595;DHT22;56800;52.142;5.364;2023-08-20T02:37:42;18.90;72.70
69595;DHT22;56800;52.142;5.364;2023-08-20T02:40:09;18.80;72.80
69595;DHT22;56800;52.142;5.364;2023-08-20T02:42:36;18.80;73.00
69595;DHT22;56800;52.142;5.364;2023-08-20T02:45:03;18.70;73.10
69595;DHT22;56800;52.142;5.364;2023-08-20T02:47:30;18.70;73.20
69595;DHT22;56800;52.142;5.364;2023-08-20T02:49:57;18.60;73.30
69595;DHT22;56800;52.142;5.364;2023-08-20T02:52:24;18.60;73.40
69595;DHT22;56800;52.142;5.364;2023-08-20T02:54:51;18.60;73.50
69595;DHT22;56800;52.142;5.364;2023-08-20T02:57:17;18.50;73.50
69595;DHT22;56800;52.142;5.364;2023-08-20T02:59:44;18.50;73.70
69595;DHT22;56800;52.142;5.364;2023-08-20T03:02:11;18.50;73.70
69595;DHT22;56800;52.142;5.364;2023-08-20T03:04:37;18.50;73.80
69595;DHT22;56800;52.142;5.364;2023-08-20T03:07:04;18.50;73.80
69595;DHT22;56800;52.142;5.364;2023-08-20T03:09:31;18.50;73.70
69595;DHT22;56800;52.142;5.364;2023-08-20T03:11:58;18.50;73.70
69595;DHT22;56800;52.142;5.364;2023-08-20T03:14:25;18.50;73.80
69595;DHT22;56800;52.142;5.364;2023-08-20T03:16:54;18.40;73.80
69595;DHT22;56800;52.142;5.364;2023-08-20T03:19:21;18.40;73.90
69595;DHT22;56800;52.142;5.364;2023-08-20T03:21:48;18.40;73.90
69595;DHT22;56800;52.142;5.364;2023-08-20T03:24:14;18.30;73.90
69595;DHT22;56800;52.142;5.364;2023-08-20T03:26:41;18.30;74.00
69595;DHT22;56800;52.142;5.364;2023-08-20T03:29:08;18.30;74.10
69595;DHT22;56800;52.142;5.364;2023-08-20T03:31:34;18.30;74.20
69595;DHT22;56800;52.142;5.364;2023-08-20T03:34:01;18.30;74.20
69595;DHT22;56800;52.142;5.364;2023-08-20T03:36:28;18.30;74.30
69595;DHT22;56800;52.142;5.364;2023-08-20T03:38:55;18.30;74.20
69595;DHT22;56800;52.142;5.364;2023-08-20T03:41:21;18.30;74.20
69595;DHT22;56800;52.142;5.364;2023-08-20T03:43:48;18.30;74.10
69595;DHT22;56800;52.142;5.364;2023-08-20T03:46:15;18.40;74.10
69595;DHT22;56800;52.142;5.364;2023-08-20T03:48:43;18.30;74.10
69595;DHT22;56800;52.142;5.364;2023-08-20T03:51:09;18.40;74.30
69595;DHT22;56800;52.142;5.364;2023-08-20T03:53:36;18.40;74.20
69595;DHT22;56800;52.142;5.364;2023-08-20T03:56:03;18.40;74.20
69595;DHT22;56800;52.142;5.364;2023-08-20T03:58:30;18.40;74.20
69595;DHT22;56800;52.142;5.364;2023-08-20T04:00:57;18.50;74.10
69595;DHT22;56800;52.142;5.364;2023-08-20T04:03:24;18.50;74.20
69595;DHT22;56800;52.142;5.364;2023-08-20T04:05:50;18.50;74.20
69595;DHT22;56800;52.142;5.364;2023-08-20T04:08:18;18.50;74.10
69595;DHT22;56800;52.142;5.364;2023-08-20T04:10:44;18.50;74.10
69595;DHT22;56800;52.142;5.364;2023-08-20T04:13:12;18.50;74.10
69595;DHT22;56800;52.142;5.364;2023-08-20T04:15:40;18.50;74.10
69595;DHT22;56800;52.142;5.364;2023-08-20T04:18:07;18.40;74.10
69595;DHT22;56800;52.142;5.364;2023-08-20T04:20:34;18.50;74.20
69595;DHT22;56800;52.142;5.364;2023-08-20T04:23:01;18.50;74.20
69595;DHT22;56800;52.142;5.364;2023-08-20T04:25:28;18.40;74.20
69595;DHT22;56800;52.142;5.364;2023-08-20T04:27:55;18.50;74.30
69595;DHT22;56800;52.142;5.364;2023-08-20T04:30:21;18.50;74.30
69595;DHT22;56800;52.142;5.364;2023-08-20T04:32:48;18.40;74.30
69595;DHT22;56800;52.142;5.364;2023-08-20T04:35:15;18.50;74.40
69595;DHT22;56800;52.142;5.364;2023-08-20T04:37:42;18.50;74.40
69595;DHT22;56800;52.142;5.364;2023-08-20T04:40:09;18.50;74.40
69595;DHT22;56800;52.142;5.364;2023-08-20T04:42:36;18.40;74.30
69595;DHT22;56800;52.142;5.364;2023-08-20T04:45:03;18.40;74.30
69595;DHT22;56800;52.142;5.364;2023-08-20T04:47:30;18.40;74.30
69595;DHT22;56800;52.142;5.364;2023-08-20T04:49:57;18.40;74.30
69595;DHT22;56800;52.142;5.364;2023-08-20T04:52:24;18.40;74.40
69595;DHT22;56800;52.142;5.364;2023-08-20T04:54:51;18.40;74.30
69595;DHT22;56800;52.142;5.364;2023-08-20T04:57:17;18.40;74.30
69595;DHT22;56800;52.142;5.364;2023-08-20T04:59:44;18.40;74.40
69595;DHT22;56800;52.142;5.364;2023-08-20T05:02:12;18.40;74.30
69595;DHT22;56800;52.142;5.364;2023-08-20T05:04:39;18.40;74.40
69595;DHT22;56800;52.142;5.364;2023-08-20T05:07:06;18.40;74.50
69595;DHT22;56800;52.142;5.364;2023-08-20T05:09:33;18.30;74.40
69595;DHT22;56800;52.142;5.364;2023-08-20T05:12:00;18.30;74.50
69595;DHT22;56800;52.142;5.364;2023-08-20T05:14:26;18.30;74.50
69595;DHT22;56800;52.142;5.364;2023-08-20T05:16:53;18.30;74.50
69595;DHT22;56800;52.142;5.364;2023-08-20T05:19:20;18.30;74.50
69595;DHT22;56800;52.142;5.364;2023-08-20T05:21:47;18.30;74.60
69595;DHT22;56800;52.142;5.364;2023-08-20T05:24:13;18.30;74.70
69595;DHT22;56800;52.142;5.364;2023-08-20T05:26:40;18.30;74.60
69595;DHT22;56800;52.142;5.364;2023-08-20T05:29:07;18.30;74.70
69595;DHT22;56800;52.142;5.364;2023-08-20T05:31:34;18.30;74.70
69595;DHT22;56800;52.142;5.364;2023-08-20T05:34:00;18.20;74.70
69595;DHT22;56800;52.142;5.364;2023-08-20T05:36:27;18.20;74.60
69595;DHT22;56800;52.142;5.364;2023-08-20T05:38:54;18.20;74.60
69595;DHT22;56800;52.142;5.364;2023-08-20T05:41:20;18.20;74.60
69595;DHT22;56800;52.142;5.364;2023-08-20T05:43:47;18.10;74.70
69595;DHT22;56800;52.142;5.364;2023-08-20T05:46:14;18.10;74.80
69595;DHT22;56800;52.142;5.364;2023-08-20T05:48:40;18.10;74.90
69595;DHT22;56800;52.142;5.364;2023-08-20T05:51:07;18.10;75.00
69595;DHT22;56800;52.142;5.364;2023-08-20T05:53:34;18.10;75.00
69595;DHT22;56800;52.142;5.364;2023-08-20T05:56:00;18.10;75.20
69595;DHT22;56800;52.142;5.364;2023-08-20T05:58:27;18.10;75.20
69595;DHT22;56800;52.142;5.364;2023-08-20T06:00:54;18.10;75.30
69595;DHT22;56800;52.142;5.364;2023-08-20T06:03:21;18.10;75.40
69595;DHT22;56800;52.142;5.364;2023-08-20T06:05:47;18.10;75.60
69595;DHT22;56800;52.142;5.364;2023-08-20T06:08:14;18.10;75.60
69595;DHT22;56800;52.142;5.364;2023-08-20T06:10:41;18.20;75.70
69595;DHT22;56800;52.142;5.364;2023-08-20T06:13:08;18.20;75.70
69595;DHT22;56800;52.142;5.364;2023-08-20T06:15:34;18.20;75.80
69595;DHT22;56800;52.142;5.364;2023-08-20T06:18:01;18.20;75.80
69595;DHT22;56800;52.142;5.364;2023-08-20T06:20:28;18.30;75.80
69595;DHT22;56800;52.142;5.364;2023-08-20T06:22:55;18.30;75.80
69595;DHT22;56800;52.142;5.364;2023-08-20T06:25:21;18.30;75.80
69595;DHT22;56800;52.142;5.364;2023-08-20T06:27:48;18.40;75.80
69595;DHT22;56800;52.142;5.364;2023-08-20T06:30:15;18.40;75.90
69595;DHT22;56800;52.142;5.364;2023-08-20T06:32:43;18.50;75.90
69595;DHT22;56800;52.142;5.364;2023-08-20T06:35:10;18.50;76.00
69595;DHT22;56800;52.142;5.364;2023-08-20T06:37:40;18.50;76.00
69595;DHT22;56800;52.142;5.364;2023-08-20T06:40:07;18.60;76.10
69595;DHT22;56800;52.142;5.364;2023-08-20T06:42:34;18.60;76.10
69595;DHT22;56800;52.142;5.364;2023-08-20T06:45:05;18.70;76.10
69595;DHT22;56800;52.142;5.364;2023-08-20T06:47:32;18.70;76.00
69595;DHT22;56800;52.142;5.364;2023-08-20T06:49:59;18.80;75.90
69595;DHT22;56800;52.142;5.364;2023-08-20T06:52:26;18.80;75.80
69595;DHT22;56800;52.142;5.364;2023-08-20T06:54:53;18.90;75.80
69595;DHT22;56800;52.142;5.364;2023-08-20T06:57:19;19.00;75.70
69595;DHT22;56800;52.142;5.364;2023-08-20T06:59:46;19.00;75.60
69595;DHT22;56800;52.142;5.364;2023-08-20T07:02:13;19.00;75.50
69595;DHT22;56800;52.142;5.364;2023-08-20T07:04:40;19.10;75.50
69595;DHT22;56800;52.142;5.364;2023-08-20T07:07:07;19.20;75.60
69595;DHT22;56800;52.142;5.364;2023-08-20T07:09:34;19.20;75.40
69595;DHT22;56800;52.142;5.364;2023-08-20T07:12:01;19.30;75.40
69595;DHT22;56800;52.142;5.364;2023-08-20T07:14:28;19.30;75.40
69595;DHT22;56800;52.142;5.364;2023-08-20T07:16:55;19.30;75.20
69595;DHT22;56800;52.142;5.364;2023-08-20T07:19:22;19.40;75.20
69595;DHT22;56800;52.142;5.364;2023-08-20T07:21:48;19.50;75.10
69595;DHT22;56800;52.142;5.364;2023-08-20T07:24:16;19.50;74.90
69595;DHT22;56800;52.142;5.364;2023-08-20T07:26:43;19.60;74.90
69595;DHT22;56800;52.142;5.364;2023-08-20T07:29:10;19.60;74.90
69595;DHT22;56800;52.142;5.364;2023-08-20T07:31:37;19.70;75.00
69595;DHT22;56800;52.142;5.364;2023-08-20T07:34:04;19.80;74.90
69595;DHT22;56800;52.142;5.364;2023-08-20T07:36:32;19.80;74.60
69595;DHT22;56800;52.142;5.364;2023-08-20T07:38:59;19.90;74.60
69595;DHT22;56800;52.142;5.364;2023-08-20T07:41:28;19.90;74.50
69595;DHT22;56800;52.142;5.364;2023-08-20T07:43:54;20.00;74.30
69595;DHT22;56800;52.142;5.364;2023-08-20T07:46:21;20.10;74.20
69595;DHT22;56800;52.142;5.364;2023-08-20T07:48:48;20.10;74.10
69595;DHT22;56800;52.142;5.364;2023-08-20T07:51:15;20.20;73.90
69595;DHT22;56800;52.142;5.364;2023-08-20T07:53:41;20.30;73.80
69595;DHT22;56800;52.142;5.364;2023-08-20T07:56:08;20.30;73.50
69595;DHT22;56800;52.142;5.364;2023-08-20T07:58:35;20.40;73.30
69595;DHT22;56800;52.142;5.364;2023-08-20T08:01:02;20.50;73.10
69595;DHT22;56800;52.142;5.364;2023-08-20T08:03:32;20.50;72.60
69595;DHT22;56800;52.142;5.364;2023-08-20T08:05:59;20.60;72.30
69595;DHT22;56800;52.142;5.364;2023-08-20T08:08:25;20.70;72.20
69595;DHT22;56800;52.142;5.364;2023-08-20T08:10:52;20.80;71.90
69595;DHT22;56800;52.142;5.364;2023-08-20T08:13:20;20.80;71.60
69595;DHT22;56800;52.142;5.364;2023-08-20T08:15:48;20.90;71.40
69595;DHT22;56800;52.142;5.364;2023-08-20T08:18:16;20.90;71.20
69595;DHT22;56800;52.142;5.364;2023-08-20T08:20:42;21.00;71.00
69595;DHT22;56800;52.142;5.364;2023-08-20T08:23:09;21.10;70.90
69595;DHT22;56800;52.142;5.364;2023-08-20T08:25:36;21.20;70.80
69595;DHT22;56800;52.142;5.364;2023-08-20T08:28:04;21.30;70.80
69595;DHT22;56800;52.142;5.364;2023-08-20T08:30:31;21.30;70.30
69595;DHT22;56800;52.142;5.364;2023-08-20T08:32:58;21.40;70.10
69595;DHT22;56800;52.142;5.364;2023-08-20T08:35:25;21.50;70.00
69595;DHT22;56800;52.142;5.364;2023-08-20T08:37:52;21.60;69.50
69595;DHT22;56800;52.142;5.364;2023-08-20T08:40:19;21.60;69.10
69595;DHT22;56800;52.142;5.364;2023-08-20T08:42:49;21.70;68.80
69595;DHT22;56800;52.142;5.364;2023-08-20T08:45:19;21.80;68.70
69595;DHT22;56800;52.142;5.364;2023-08-20T08:47:47;21.90;68.50
69595;DHT22;56800;52.142;5.364;2023-08-20T08:50:14;22.10;68.40
69595;DHT22;56800;52.142;5.364;2023-08-20T08:52:42;22.20;68.20
69595;DHT22;56800;52.142;5.364;2023-08-20T08:55:09;22.30;67.90
69595;DHT22;56800;52.142;5.364;2023-08-20T08:57:38;22.40;67.50
69595;DHT22;56800;52.142;5.364;2023-08-20T09:00:05;22.50;66.80
69595;DHT22;56800;52.142;5.364;2023-08-20T09:02:32;22.70;66.70
69595;DHT22;56800;52.142;5.364;2023-08-20T09:04:59;22.90;66.40
69595;DHT22;56800;52.142;5.364;2023-08-20T09:07:26;23.20;66.40
69595;DHT22;56800;52.142;5.364;2023-08-20T09:09:58;23.40;66.10
69595;DHT22;56800;52.142;5.364;2023-08-20T09:12:27;23.50;65.30
69595;DHT22;56800;52.142;5.364;2023-08-20T09:14:54;23.60;65.20
69595;DHT22;56800;52.142;5.364;2023-08-20T09:17:28;23.70;65.10
69595;DHT22;56800;52.142;5.364;2023-08-20T09:19:56;23.70;64.40
69595;DHT22;56800;52.142;5.364;2023-08-20T09:22:24;23.80;64.40
69595;DHT22;56800;52.142;5.364;2023-08-20T09:24:55;23.90;63.70
69595;DHT22;56800;52.142;5.364;2023-08-20T09:27:23;23.90;63.00
69595;DHT22;56800;52.142;5.364;2023-08-20T09:29:56;24.00;62.60
69595;DHT22;56800;52.142;5.364;2023-08-20T09:32:27;24.10;62.20
69595;DHT22;56800;52.142;5.364;2023-08-20T09:34:55;24.20;62.10
69595;DHT22;56800;52.142;5.364;2023-08-20T09:37:24;24.30;61.80
69595;DHT22;56800;52.142;5.364;2023-08-20T09:39:52;24.40;61.60
69595;DHT22;56800;52.142;5.364;2023-08-20T09:42:19;24.50;61.40
69595;DHT22;56800;52.142;5.364;2023-08-20T09:44:46;24.90;61.20
69595;DHT22;56800;52.142;5.364;2023-08-20T09:47:17;25.10;60.70
69595;DHT22;56800;52.142;5.364;2023-08-20T09:49:46;25.40;60.60
69595;DHT22;56800;52.142;5.364;2023-08-20T09:52:25;25.60;59.40
69595;DHT22;56800;52.142;5.364;2023-08-20T09:57:39;25.90;58.10
69595;DHT22;56800;52.142;5.364;2023-08-20T10:00:29;26.10;57.80
69595;DHT22;56800;52.142;5.364;2023-08-20T10:03:18;26.40;57.00
69595;DHT22;56800;52.142;5.364;2023-08-20T10:05:49;26.40;56.20
69595;DHT22;56800;52.142;5.364;2023-08-20T10:08:17;26.60;56.30
69595;DHT22;56800;52.142;5.364;2023-08-20T10:10:44;26.60;55.40
69595;DHT22;56800;52.142;5.364;2023-08-20T10:13:13;26.70;55.20
69595;DHT22;56800;52.142;5.364;2023-08-20T10:15:40;26.70;55.00
69595;DHT22;56800;52.142;5.364;2023-08-20T10:18:11;26.80;54.30
69595;DHT22;56800;52.142;5.364;2023-08-20T10:20:39;26.90;53.90
69595;DHT22;56800;52.142;5.364;2023-08-20T10:23:07;27.00;54.10
69595;DHT22;56800;52.142;5.364;2023-08-20T10:25:41;27.00;53.70
69595;DHT22;56800;52.142;5.364;2023-08-20T10:28:23;27.00;52.70
69595;DHT22;56800;52.142;5.364;2023-08-20T10:31:09;27.00;53.00
69595;DHT22;56800;52.142;5.364;2023-08-20T10:33:49;27.20;53.30
69595;DHT22;56800;52.142;5.364;2023-08-20T10:36:18;27.30;52.30
69595;DHT22;56800;52.142;5.364;2023-08-20T10:38:50;27.30;53.50
69595;DHT22;56800;52.142;5.364;2023-08-20T10:41:25;27.30;52.80
69595;DHT22;56800;52.142;5.364;2023-08-20T10:43:52;27.40;52.20
69595;DHT22;56800;52.142;5.364;2023-08-20T10:46:21;27.40;52.70
69595;DHT22;56800;52.142;5.364;2023-08-20T10:51:19;27.40;52.00
69595;DHT22;56800;52.142;5.364;2023-08-20T10:56:39;27.30;52.10
69595;DHT22;56800;52.142;5.364;2023-08-20T10:59:28;27.20;51.70
69595;DHT22;56800;52.142;5.364;2023-08-20T11:01:57;27.20;52.20
69595;DHT22;56800;52.142;5.364;2023-08-20T11:04:29;27.20;50.40
69595;DHT22;56800;52.142;5.364;2023-08-20T11:06:59;27.10;50.00
69595;DHT22;56800;52.142;5.364;2023-08-20T11:09:27;27.00;50.40
69595;DHT22;56800;52.142;5.364;2023-08-20T11:11:55;26.90;50.90
69595;DHT22;56800;52.142;5.364;2023-08-20T11:14:22;26.90;51.50
69595;DHT22;56800;52.142;5.364;2023-08-20T11:16:49;26.90;51.30
69595;DHT22;56800;52.142;5.364;2023-08-20T11:19:21;26.80;51.10
69595;DHT22;56800;52.142;5.364;2023-08-20T11:21:48;26.80;51.30
69595;DHT22;56800;52.142;5.364;2023-08-20T11:24:16;26.80;51.30
69595;DHT22;56800;52.142;5.364;2023-08-20T11:26:44;26.70;51.00
69595;DHT22;56800;52.142;5.364;2023-08-20T11:29:16;26.70;51.10
69595;DHT22;56800;52.142;5.364;2023-08-20T11:31:49;26.60;52.20
69595;DHT22;56800;52.142;5.364;2023-08-20T11:34:18;26.50;51.60
69595;DHT22;56800;52.142;5.364;2023-08-20T11:36:45;26.50;51.60
69595;DHT22;56800;52.142;5.364;2023-08-20T11:39:12;26.40;51.60
69595;DHT22;56800;52.142;5.364;2023-08-20T11:41:40;26.30;53.00
69595;DHT22;56800;52.142;5.364;2023-08-20T11:44:10;26.30;53.50
69595;DHT22;56800;52.142;5.364;2023-08-20T11:46:45;26.20;52.40
69595;DHT22;56800;52.142;5.364;2023-08-20T11:49:34;26.20;52.00
69595;DHT22;56800;52.142;5.364;2023-08-20T11:52:00;26.20;52.30
69595;DHT22;56800;52.142;5.364;2023-08-20T11:54:27;26.20;51.70
69595;DHT22;56800;52.142;5.364;2023-08-20T11:57:03;26.20;51.50
69595;DHT22;56800;52.142;5.364;2023-08-20T11:59:30;26.30;51.30
69595;DHT22;56800;52.142;5.364;2023-08-20T12:02:01;26.50;51.40
69595;DHT22;56800;52.142;5.364;2023-08-20T12:04:30;26.60;51.40
69595;DHT22;56800;52.142;5.364;2023-08-20T12:07:04;26.70;51.20
69595;DHT22;56800;52.142;5.364;2023-08-20T12:09:33;26.80;50.40
69595;DHT22;56800;52.142;5.364;2023-08-20T12:11:59;26.80;49.90
69595;DHT22;56800;52.142;5.364;2023-08-20T12:14:26;26.70;49.70
69595;DHT22;56800;52.142;5.364;2023-08-20T12:16:54;26.70;49.80
69595;DHT22;56800;52.142;5.364;2023-08-20T12:19:21;26.80;50.20
69595;DHT22;56800;52.142;5.364;2023-08-20T12:21:48;26.70;50.10
69595;DHT22;56800;52.142;5.364;2023-08-20T12:24:15;26.70;50.30
69595;DHT22;56800;52.142;5.364;2023-08-20T12:26:42;26.70;50.60
69595;DHT22;56800;52.142;5.364;2023-08-20T12:29:09;26.60;50.60
69595;DHT22;56800;52.142;5.364;2023-08-20T12:31:36;26.60;50.60
69595;DHT22;56800;52.142;5.364;2023-08-20T12:34:03;26.60;50.90
69595;DHT22;56800;52.142;5.364;2023-08-20T12:36:30;26.50;51.10
69595;DHT22;56800;52.142;5.364;2023-08-20T12:38:57;26.60;51.10
69595;DHT22;56800;52.142;5.364;2023-08-20T12:41:24;26.60;51.00
69595;DHT22;56800;52.142;5.364;2023-08-20T12:43:50;26.70;51.60
69595;DHT22;56800;52.142;5.364;2023-08-20T12:46:17;26.70;51.00
69595;DHT22;56800;52.142;5.364;2023-08-20T12:48:44;26.80;50.40
69595;DHT22;56800;52.142;5.364;2023-08-20T12:51:11;26.90;50.80
69595;DHT22;56800;52.142;5.364;2023-08-20T12:53:40;27.10;50.40
69595;DHT22;56800;52.142;5.364;2023-08-20T12:56:07;27.20;50.00
69595;DHT22;56800;52.142;5.364;2023-08-20T12:58:34;27.20;49.70
69595;DHT22;56800;52.142;5.364;2023-08-20T13:01:01;27.20;49.70
69595;DHT22;56800;52.142;5.364;2023-08-20T13:03:29;27.20;49.40
69595;DHT22;56800;52.142;5.364;2023-08-20T13:05:56;27.20;49.10
69595;DHT22;56800;52.142;5.364;2023-08-20T13:08:26;27.00;49.30
69595;DHT22;56800;52.142;5.364;2023-08-20T13:10:55;26.90;49.50
69595;DHT22;56800;52.142;5.364;2023-08-20T13:13:23;26.80;49.90
69595;DHT22;56800;52.142;5.364;2023-08-20T13:15:53;26.90;50.80
69595;DHT22;56800;52.142;5.364;2023-08-20T13:18:21;27.00;50.30
69595;DHT22;56800;52.142;5.364;2023-08-20T13:20:55;26.90;50.00
69595;DHT22;56800;52.142;5.364;2023-08-20T13:23:22;26.90;50.30
69595;DHT22;56800;52.142;5.364;2023-08-20T13:25:50;26.90;50.40
69595;DHT22;56800;52.142;5.364;2023-08-20T13:28:16;27.10;50.50
69595;DHT22;56800;52.142;5.364;2023-08-20T13:30:44;27.20;50.50
69595;DHT22;56800;52.142;5.364;2023-08-20T13:33:12;27.40;50.30
69595;DHT22;56800;52.142;5.364;2023-08-20T13:35:40;27.50;49.90
69595;DHT22;56800;52.142;5.364;2023-08-20T13:38:07;27.50;49.60
69595;DHT22;56800;52.142;5.364;2023-08-20T13:40:34;27.40;49.10
69595;DHT22;56800;52.142;5.364;2023-08-20T13:43:01;27.30;50.20
69595;DHT22;56800;52.142;5.364;2023-08-20T13:45:27;27.20;49.50
69595;DHT22;56800;52.142;5.364;2023-08-20T13:47:54;27.30;50.10
69595;DHT22;56800;52.142;5.364;2023-08-20T13:50:22;27.50;50.40
69595;DHT22;56800;52.142;5.364;2023-08-20T13:52:49;27.70;50.00
69595;DHT22;56800;52.142;5.364;2023-08-20T13:55:15;27.80;49.10
69595;DHT22;56800;52.142;5.364;2023-08-20T13:57:42;27.90;49.20
69595;DHT22;56800;52.142;5.364;2023-08-20T14:00:09;27.90;48.80
69595;DHT22;56800;52.142;5.364;2023-08-20T14:02:39;28.00;48.60
69595;DHT22;56800;52.142;5.364;2023-08-20T14:05:06;28.00;48.50
69595;DHT22;56800;52.142;5.364;2023-08-20T14:07:33;28.10;48.50
69595;DHT22;56800;52.142;5.364;2023-08-20T14:10:02;28.20;48.20
69595;DHT22;56800;52.142;5.364;2023-08-20T14:12:29;28.50;48.00
69595;DHT22;56800;52.142;5.364;2023-08-20T14:14:56;28.80;47.80
69595;DHT22;56800;52.142;5.364;2023-08-20T14:17:23;29.10;47.30
69595;DHT22;56800;52.142;5.364;2023-08-20T14:19:49;29.20;46.70
69595;DHT22;56800;52.142;5.364;2023-08-20T14:22:16;29.30;46.60
69595;DHT22;56800;52.142;5.364;2023-08-20T14:24:43;29.40;46.60
69595;DHT22;56800;52.142;5.364;2023-08-20T14:27:10;29.40;46.00
69595;DHT22;56800;52.142;5.364;2023-08-20T14:29:37;29.30;46.10
69595;DHT22;56800;52.142;5.364;2023-08-20T14:32:04;29.40;46.60
69595;DHT22;56800;52.142;5.364;2023-08-20T14:34:31;29.50;46.60
69595;DHT22;56800;52.142;5.364;2023-08-20T14:36:57;29.60;46.50
69595;DHT22;56800;52.142;5.364;2023-08-20T14:39:24;29.70;46.30
69595;DHT22;56800;52.142;5.364;2023-08-20T14:41:51;29.80;46.00
69595;DHT22;56800;52.142;5.364;2023-08-20T14:44:18;29.80;45.50
69595;DHT22;56800;52.142;5.364;2023-08-20T14:46:44;29.80;45.40
69595;DHT22;56800;52.142;5.364;2023-08-20T14:49:11;29.90;45.50
69595;DHT22;56800;52.142;5.364;2023-08-20T14:51:38;30.00;44.90
69595;DHT22;56800;52.142;5.364;2023-08-20T14:54:05;30.10;44.50
69595;DHT22;56800;52.142;5.364;2023-08-20T14:56:31;30.20;44.50
69595;DHT22;56800;52.142;5.364;2023-08-20T14:58:58;30.40;44.50
69595;DHT22;56800;52.142;5.364;2023-08-20T15:01:26;30.50;44.30
69595;DHT22;56800;52.142;5.364;2023-08-20T15:03:52;30.50;43.80
69595;DHT22;56800;52.142;5.364;2023-08-20T15:06:19;30.60;43.60
69595;DHT22;56800;52.142;5.364;2023-08-20T15:08:48;30.60;43.40
69595;DHT22;56800;52.142;5.364;2023-08-20T15:11:15;30.60;43.50
69595;DHT22;56800;52.142;5.364;2023-08-20T15:13:42;30.50;43.60
69595;DHT22;56800;52.142;5.364;2023-08-20T15:16:09;30.60;44.00
69595;DHT22;56800;52.142;5.364;2023-08-20T15:18:35;30.70;43.70
69595;DHT22;56800;52.142;5.364;2023-08-20T15:21:02;30.80;43.90
69595;DHT22;56800;52.142;5.364;2023-08-20T15:23:29;30.80;43.40
69595;DHT22;56800;52.142;5.364;2023-08-20T15:25:56;30.80;43.10
69595;DHT22;56800;52.142;5.364;2023-08-20T15:28:24;30.80;42.30
69595;DHT22;56800;52.142;5.364;2023-08-20T15:30:52;30.70;42.50
69595;DHT22;56800;52.142;5.364;2023-08-20T15:33:20;30.60;42.20
69595;DHT22;56800;52.142;5.364;2023-08-20T15:35:49;30.50;42.60
69595;DHT22;56800;52.142;5.364;2023-08-20T15:38:16;30.50;42.70
69595;DHT22;56800;52.142;5.364;2023-08-20T15:40:43;30.40;42.60
69595;DHT22;56800;52.142;5.364;2023-08-20T15:43:10;30.30;42.90
69595;DHT22;56800;52.142;5.364;2023-08-20T15:45:37;30.20;43.00
69595;DHT22;56800;52.142;5.364;2023-08-20T15:48:03;30.00;43.20